Time;durP1;ratioP1;P1;durP2;ratioP2;P2;SDS_P1;SDS_P2;PMS_P1;PMS_P2;Temp;Humidity;BMP_temperature;BMP_pressure;BME280_temperature;BME280_humidity;BME280_pressure;Samples;Min_cycle;Max_cycle;Signal;HPM_P1;HPM_P2
2024/01/03 00:01:42;;;;;;;40.60;7.45;;;12.50;99.90;;;12.09;100.00;99651.94;4188323;28;20025;-73
2024/01/03 00:03:43;;;;;;;40.90;8.80;;;12.50;99.90;;;12.05;100.00;99653.31;4202104;28;20025;-73
2024/01/03 00:05:44;;;;;;;47.00;8.52;;;12.50;99.90;;;12.06;100.00;99657.63;4192392;28;20279;-73
2024/01/03 00:07:47;;;;;;;39.35;8.30;;;12.50;99.90;;;12.05;100.00;99654.16;4186397;28;20373;-73
2024/01/03 00:09:55;;;;;;;44.55;8.10;;;12.50;99.90;;;12.02;100.00;99646.59;4184940;28;20485;-73
2024/01/03 00:11:57;;;;;;;41.33;6.55;;;12.50;99.90;;;12.09;100.00;99652.78;4205426;28;20027;-73
2024/01/03 00:14:27;;;;;;;45.92;7.07;;;12.50;99.90;;;12.11;100.00;99648.09;4201331;28;20119;-73
2024/01/03 00:16:28;;;;;;;36.03;6.47;;;12.50;99.90;;;12.06;100.00;99658.44;4202750;28;20016;-73
2024/01/03 00:18:57;;;;;;;43.90;8.32;;;12.50;99.90;;;11.99;100.00;99646.16;4201312;28;20539;-73
2024/01/03 00:20:59;;;;;;;36.13;6.88;;;12.50;99.90;;;11.94;100.00;99662.59;4201522;28;20082;-73
2024/01/03 00:23:06;;;;;;;36.45;7.88;;;12.40;99.90;;;11.94;100.00;99652.03;4197318;28;20052;-73
2024/01/03 00:25:10;;;;;;;37.92;6.35;;;12.40;99.90;;;11.95;100.00;99645.72;4185021;28;20024;-73
2024/01/03 00:27:11;;;;;;;43.85;7.65;;;12.40;99.90;;;11.97;100.00;99643.72;4184811;28;20626;-73
2024/01/03 00:29:24;;;;;;;44.78;6.47;;;12.40;99.90;;;11.98;100.00;99647.97;4201206;28;20064;-73
2024/01/03 00:31:42;;;;;;;37.80;6.65;;;12.40;99.90;;;12.06;100.00;99658.44;4196648;28;20029;-73
2024/01/03 00:33:43;;;;;;;42.72;9.68;;;12.40;99.90;;;12.05;100.00;99656.78;4188489;28;20033;-73
2024/01/03 00:35:45;;;;;;;45.28;8.90;;;12.50;99.90;;;12.05;100.00;99683.22;4185889;28;20036;-73
2024/01/03 00:37:46;;;;;;;39.33;8.57;;;12.50;99.90;;;12.07;100.00;99660.06;4185839;28;20543;-73
2024/01/03 00:39:47;;;;;;;44.25;8.13;;;12.50;99.90;;;12.00;100.00;99648.63;4185898;28;20041;-73
2024/01/03 00:41:48;;;;;;;38.92;7.93;;;12.50;99.90;;;12.11;100.00;99650.75;4186767;28;20051;-73
2024/01/03 00:43:49;;;;;;;36.72;6.75;;;12.50;99.90;;;12.13;100.00;99661.94;4189039;28;20036;-73
2024/01/03 00:45:50;;;;;;;36.20;5.03;;;12.60;99.90;;;12.11;100.00;99661.31;4202284;28;20039;-73
2024/01/03 00:47:51;;;;;;;37.03;7.47;;;12.60;99.90;;;12.09;100.00;99665.16;4201053;28;20029;-73
2024/01/03 00:49:52;;;;;;;34.42;6.40;;;12.50;99.90;;;11.96;100.00;99667.69;4201193;28;20050;-73
2024/01/03 00:51:54;;;;;;;28.23;5.22;;;12.50;99.90;;;11.93;100.00;99662.78;4200881;28;20028;-73
2024/01/03 00:53:55;;;;;;;31.13;4.90;;;12.40;99.90;;;11.97;100.00;99653.47;4200893;28;20033;-73
2024/01/03 00:55:57;;;;;;;35.60;6.65;;;12.40;99.90;;;11.87;100.00;99667.00;4201094;28;20388;-73
2024/01/03 00:57:57;;;;;;;27.67;6.30;;;12.40;99.90;;;11.87;100.00;99651.16;4202081;28;20029;-73
2024/01/03 00:59:58;;;;;;;24.40;6.40;;;12.30;99.90;;;11.81;100.00;99657.19;4202023;28;20055;-73
2024/01/03 01:01:59;;;;;;;32.90;6.38;;;12.30;99.90;;;11.90;100.00;99657.88;4202076;28;20031;-73
2024/01/03 01:04:00;;;;;;;20.65;4.35;;;12.30;99.90;;;11.86;100.00;99657.44;4200615;28;20028;-73
2024/01/03 01:06:01;;;;;;;36.08;6.63;;;12.30;99.90;;;11.89;100.00;99664.97;4201734;28;20059;-73
2024/01/03 01:08:02;;;;;;;33.67;6.32;;;12.30;99.90;;;11.88;100.00;99668.66;4200665;28;20024;-73
2024/01/03 01:10:04;;;;;;;29.15;5.00;;;12.40;99.90;;;11.89;100.00;99661.53;4217466;28;20048;-73
2024/01/03 01:12:05;;;;;;;32.95;5.55;;;12.30;99.90;;;11.95;100.00;99668.69;4200659;28;20035;-73
2024/01/03 01:14:05;;;;;;;30.70;5.72;;;12.40;99.90;;;11.93;100.00;99671.53;4189730;28;20029;-73
2024/01/03 01:16:06;;;;;;;36.90;7.90;;;12.40;99.90;;;11.88;100.00;99659.91;4185183;28;20021;-73
2024/01/03 01:18:07;;;;;;;35.92;5.15;;;12.40;99.90;;;11.88;100.00;99652.81;4183894;28;20033;-73
2024/01/03 01:20:08;;;;;;;33.20;5.93;;;12.30;99.90;;;11.85;100.00;99661.09;4200731;28;20500;-73
2024/01/03 01:22:09;;;;;;;29.92;6.57;;;12.40;99.90;;;11.85;100.00;99655.00;4189860;28;20233;-73
2024/01/03 01:24:10;;;;;;;20.73;4.75;;;12.30;99.90;;;11.83;100.00;99663.09;4186829;28;20503;-73
2024/01/03 01:26:11;;;;;;;22.20;4.95;;;12.30;99.90;;;11.85;100.00;99671.69;4185270;28;20032;-73
2024/01/03 01:28:12;;;;;;;23.65;4.88;;;12.30;99.90;;;11.77;100.00;99669.16;4185239;28;20388;-73
2024/01/03 01:30:13;;;;;;;24.73;4.65;;;12.20;99.90;;;11.71;100.00;99679.69;4193593;28;20028;-73
2024/01/03 01:32:14;;;;;;;29.65;5.07;;;12.20;99.90;;;11.68;100.00;99666.81;4191551;28;20024;-73
2024/01/03 01:34:15;;;;;;;29.33;4.70;;;12.10;99.90;;;11.82;100.00;99669.41;4184916;28;20029;-73
2024/01/03 01:36:16;;;;;;;20.88;5.07;;;12.20;99.90;;;11.86;100.00;99660.06;4185192;28;20503;-73
2024/01/03 01:38:16;;;;;;;31.75;5.95;;;12.20;99.90;;;11.79;100.00;99658.41;4185094;28;20020;-73
2024/01/03 01:40:17;;;;;;;25.90;5.25;;;12.20;99.90;;;11.76;100.00;99656.13;4184993;28;20017;-73
2024/01/03 01:42:18;;;;;;;30.10;5.78;;;12.20;99.90;;;11.64;100.00;99661.91;4186955;28;20029;-73
2024/01/03 01:44:19;;;;;;;24.65;4.75;;;12.20;99.90;;;11.87;100.00;99676.75;4185099;28;20476;-73
2024/01/03 01:46:21;;;;;;;34.00;8.38;;;12.20;99.90;;;11.85;100.00;99661.09;4185062;28;20062;-73
2024/01/03 01:48:23;;;;;;;39.20;6.15;;;12.30;99.90;;;11.83;100.00;99665.75;4166884;28;20018;-73
2024/01/03 01:50:24;;;;;;;32.50;5.60;;;12.30;99.90;;;11.87;100.00;99667.00;4200579;28;20028;-73
2024/01/03 01:52:25;;;;;;;22.98;5.05;;;12.30;99.90;;;11.92;100.00;99663.78;4208353;28;20016;-73
2024/01/03 01:54:26;;;;;;;36.78;6.22;;;12.30;99.90;;;11.89;100.00;99670.28;4190746;28;20025;-73
2024/01/03 01:56:28;;;;;;;34.65;7.18;;;12.40;99.90;;;11.84;100.00;99675.31;4183669;28;20063;-73
2024/01/03 01:58:29;;;;;;;33.97;5.72;;;12.30;99.90;;;11.82;100.00;99679.97;4184964;28;20025;-73
2024/01/03 02:00:30;;;;;;;36.58;8.13;;;12.30;99.90;;;11.98;100.00;99678.88;4185469;28;20036;-73
2024/01/03 02:02:31;;;;;;;31.17;7.13;;;12.30;99.90;;;12.02;100.00;99694.19;4195206;28;20024;-73
2024/01/03 02:04:36;;;;;;;29.95;6.05;;;12.40;99.90;;;11.97;100.00;99685.19;4202886;28;20042;-73
2024/01/03 02:06:37;;;;;;;37.83;6.43;;;12.40;99.90;;;11.91;100.00;99670.91;4204827;28;20119;-73
2024/01/03 02:08:38;;;;;;;40.58;6.88;;;12.40;99.90;;;11.91;100.00;99670.91;4203183;28;20419;-73
2024/01/03 02:10:39;;;;;;;36.92;6.38;;;12.40;99.90;;;12.01;100.00;99681.97;4188091;28;20057;-73
2024/01/03 02:12:40;;;;;;;41.72;7.43;;;12.40;99.90;;;11.90;100.00;99674.56;4194235;28;20061;-73
2024/01/03 02:14:40;;;;;;;36.55;7.13;;;12.40;99.90;;;11.88;100.00;99666.00;4187950;28;20428;-73
2024/01/03 02:16:41;;;;;;;36.88;7.50;;;12.40;99.90;;;11.84;100.00;99679.78;4186840;28;20396;-73
2024/01/03 02:18:44;;;;;;;42.92;7.53;;;12.40;99.90;;;11.88;100.00;99679.22;4203299;28;20024;-73
2024/01/03 02:20:46;;;;;;;33.55;6.65;;;12.40;99.90;;;11.90;100.00;99684.31;4186677;28;20444;-73
2024/01/03 02:22:47;;;;;;;43.95;7.25;;;12.40;99.90;;;11.99;100.00;99686.63;4192041;28;20029;-73
2024/01/03 02:24:48;;;;;;;47.10;8.90;;;12.40;99.90;;;11.98;100.00;99690.28;4187946;28;20036;-73
2024/01/03 02:26:49;;;;;;;41.30;8.00;;;12.40;99.90;;;12.05;100.00;99695.63;4187911;28;20024;-73
2024/01/03 02:28:50;;;;;;;29.95;6.07;;;12.50;99.90;;;12.03;100.00;99695.00;4187773;28;20033;-73
2024/01/03 02:30:50;;;;;;;36.63;6.97;;;12.40;99.90;;;11.97;100.00;99696.59;4198704;28;20032;-73
2024/01/03 02:32:51;;;;;;;37.35;6.88;;;12.50;99.90;;;11.87;100.00;99690.78;4196914;28;20102;-73
2024/01/03 02:34:52;;;;;;;34.78;6.55;;;12.40;99.90;;;11.81;100.00;99693.38;4195367;28;20028;-73
2024/01/03 02:36:54;;;;;;;43.50;7.63;;;12.30;99.90;;;11.70;100.00;99705.28;4186527;28;20025;-73
2024/01/03 02:38:56;;;;;;;33.80;5.95;;;12.20;99.90;;;11.57;100.00;99694.53;4202928;28;20088;-73
2024/01/03 02:40:57;;;;;;;28.50;6.25;;;12.10;99.90;;;11.47;100.00;99700.13;4186572;28;20061;-73
2024/01/03 02:42:58;;;;;;;42.47;8.10;;;12.00;99.90;;;11.47;100.00;99712.50;4203651;28;20482;-73
2024/01/03 02:44:59;;;;;;;33.50;7.00;;;12.00;99.90;;;11.47;100.00;99705.41;4187566;28;20436;-73
2024/01/03 02:47:00;;;;;;;32.58;6.43;;;12.00;99.90;;;11.40;100.00;99701.06;4187475;28;20032;-73
2024/01/03 02:49:00;;;;;;;33.38;7.05;;;11.90;99.90;;;11.39;100.00;99705.50;4186138;28;20033;-73
2024/01/03 02:51:01;;;;;;;33.80;6.57;;;11.90;99.90;;;11.54;100.00;99705.47;4187528;28;20040;-73
2024/01/03 02:53:03;;;;;;;32.00;7.85;;;12.00;99.90;;;11.58;100.00;99706.75;4199242;28;20032;-73
2024/01/03 02:55:04;;;;;;;31.75;6.70;;;12.00;99.90;;;11.58;100.00;99696.19;4188096;28;20032;-73
2024/01/03 02:57:05;;;;;;;44.10;8.38;;;12.00;99.90;;;11.70;100.00;99718.47;4188116;28;20017;-73
2024/01/03 02:59:06;;;;;;;42.25;8.27;;;12.00;99.90;;;11.59;100.00;99695.16;4193607;28;20028;-73
2024/01/03 03:01:07;;;;;;;29.75;5.78;;;12.00;99.90;;;11.57;100.00;99713.00;4187348;28;20013;-73
2024/01/03 03:03:08;;;;;;;30.10;6.70;;;12.00;99.90;;;11.65;100.00;99699.69;4195992;28;20028;-73
2024/01/03 03:05:09;;;;;;;37.25;6.72;;;12.00;99.90;;;11.52;100.00;99703.03;4208303;28;20032;-73
2024/01/03 03:07:10;;;;;;;33.78;7.32;;;12.00;99.90;;;11.56;100.00;99703.44;4202769;28;20036;-73
2024/01/03 03:09:11;;;;;;;31.85;5.63;;;12.00;99.90;;;11.51;100.00;99695.28;4202512;28;20032;-73
2024/01/03 03:11:12;;;;;;;34.17;7.55;;;11.90;99.90;;;11.36;100.00;99697.16;4203552;28;20044;-73
2024/01/03 03:13:13;;;;;;;33.65;6.80;;;11.90;99.90;;;11.36;100.00;99697.97;4201404;28;20028;-73
2024/01/03 03:15:14;;;;;;;28.85;5.55;;;11.80;99.90;;;11.37;100.00;99696.16;4203659;28;20033;-73
2024/01/03 03:17:15;;;;;;;33.60;6.35;;;11.80;99.90;;;11.53;100.00;99698.53;4202637;28;20032;-73
2024/01/03 03:19:16;;;;;;;28.73;5.25;;;11.90;99.90;;;11.48;100.00;99701.75;4203318;28;20020;-73
2024/01/03 03:21:17;;;;;;;36.80;6.13;;;11.90;99.90;;;11.43;100.00;99701.50;4203696;28;20028;-73
2024/01/03 03:23:18;;;;;;;35.28;6.93;;;11.90;99.90;;;11.49;100.00;99710.50;4195467;28;20112;-73
2024/01/03 03:25:18;;;;;;;32.78;7.43;;;11.90;99.90;;;11.64;100.00;99706.00;4186987;28;20393;-73
2024/01/03 03:27:19;;;;;;;36.28;6.65;;;12.00;99.90;;;11.62;100.00;99698.25;4186858;28;20539;-73
2024/01/03 03:29:20;;;;;;;31.15;8.43;;;12.00;99.90;;;11.67;100.00;99702.97;4188031;28;20037;-73
2024/01/03 03:31:21;;;;;;;28.67;6.07;;;12.10;99.90;;;11.65;100.00;99720.81;4196267;28;20055;-73
2024/01/03 03:33:22;;;;;;;39.40;7.10;;;12.10;99.90;;;11.65;100.00;99716.34;4188673;28;20033;-73
2024/01/03 03:35:23;;;;;;;37.08;7.38;;;12.10;99.90;;;11.60;100.00;99716.09;4186686;28;20400;-73
2024/01/03 03:37:24;;;;;;;44.78;7.35;;;12.10;99.90;;;11.53;100.00;99714.38;4186871;28;20381;-73
2024/01/03 03:39:25;;;;;;;38.80;7.93;;;12.00;99.90;;;11.48;100.00;99722.06;4186801;28;20025;-73
2024/01/03 03:41:26;;;;;;;45.53;7.70;;;12.00;99.90;;;11.57;100.00;99713.84;4202025;28;20028;-73
2024/01/03 03:43:27;;;;;;;43.85;9.40;;;12.00;99.90;;;11.57;100.00;99720.94;4202165;28;20051;-73
2024/01/03 03:45:28;;;;;;;36.88;6.55;;;12.00;99.90;;;11.43;100.00;99725.28;4185517;28;20032;-73
2024/01/03 03:47:28;;;;;;;23.92;6.88;;;12.00;99.90;;;11.31;100.00;99723.28;4186708;28;20029;-73
2024/01/03 03:49:29;;;;;;;37.78;7.55;;;11.90;99.90;;;11.25;100.00;99721.41;4185209;28;20024;-73
2024/01/03 03:51:30;;;;;;;43.90;8.45;;;11.80;99.90;;;11.31;100.00;99712.72;4187940;28;20071;-73
2024/01/03 03:53:31;;;;;;;38.20;8.57;;;11.80;99.90;;;11.31;100.00;99718.84;4197942;28;20040;-73
2024/01/03 03:55:32;;;;;;;38.60;7.40;;;11.80;99.90;;;11.37;100.00;99730.47;4186625;28;20029;-73
2024/01/03 03:57:32;;;;;;;40.13;8.02;;;11.80;99.90;;;11.36;100.00;99712.97;4186483;28;20036;-73
2024/01/03 03:59:34;;;;;;;40.30;9.35;;;11.80;99.90;;;11.52;100.00;99729.44;4192225;28;20088;-73
2024/01/03 04:01:35;;;;;;;45.08;7.80;;;11.90;99.90;;;11.51;100.00;99717.22;4187409;28;20094;-73
2024/01/03 04:03:36;;;;;;;57.65;9.27;;;11.90;99.90;;;11.58;100.00;99728.69;4193997;28;20036;-73
2024/01/03 04:05:38;;;;;;;44.83;9.23;;;12.00;99.90;;;11.66;100.00;99711.91;4195630;28;20488;-73
2024/01/03 04:07:39;;;;;;;38.95;7.65;;;12.10;99.90;;;11.66;100.00;99709.25;4201674;28;20096;-73
2024/01/03 04:09:44;;;;;;;46.28;9.23;;;12.10;99.90;;;11.61;100.00;99716.94;4202518;28;20059;-73
2024/01/03 04:11:44;;;;;;;45.92;8.77;;;12.10;99.90;;;11.68;100.00;99712.50;4202892;28;20039;-73
2024/01/03 04:13:45;;;;;;;42.25;8.00;;;12.10;99.90;;;11.67;100.00;99708.25;4201521;28;20036;-73
2024/01/03 04:15:46;;;;;;;43.03;8.18;;;12.10;99.90;;;11.71;100.00;99706.09;4202738;28;20024;-73
2024/01/03 04:17:47;;;;;;;50.20;8.00;;;12.10;99.90;;;11.68;100.00;99706.44;4202475;28;20016;-73
2024/01/03 04:19:48;;;;;;;42.33;8.32;;;12.10;99.90;;;11.67;100.00;99705.63;4202815;28;20023;-73
2024/01/03 04:21:49;;;;;;;35.72;7.72;;;12.10;99.90;;;11.62;100.00;99710.63;4201558;28;20025;-73
2024/01/03 04:23:49;;;;;;;42.45;7.45;;;12.10;99.90;;;11.71;100.00;99700.81;4205429;28;20043;-73
2024/01/03 04:25:50;;;;;;;42.30;8.25;;;12.10;99.90;;;11.62;100.00;99700.88;4185878;28;20029;-73
2024/01/03 04:27:51;;;;;;;38.95;7.78;;;12.10;99.90;;;11.54;100.00;99705.47;4186165;28;20063;-73
2024/01/03 04:29:52;;;;;;;38.58;8.05;;;12.10;99.90;;;11.38;100.00;99705.72;4190238;28;20028;-73
2024/01/03 04:31:53;;;;;;;45.80;7.97;;;11.90;99.90;;;11.35;100.00;99701.59;4205580;28;20047;-73
2024/01/03 04:33:54;;;;;;;41.42;8.80;;;11.80;99.90;;;11.31;100.00;99715.38;4188434;28;20493;-73
2024/01/03 04:35:55;;;;;;;41.78;7.70;;;11.80;99.90;;;11.32;100.00;99711.75;4185878;28;20047;-73
2024/01/03 04:38:01;;;;;;;44.85;7.18;;;11.80;99.90;;;11.38;100.00;99703.06;4185889;28;20025;-72
2024/01/03 04:40:02;;;;;;;42.58;7.85;;;11.80;99.90;;;11.43;100.00;99719.16;4185669;28;20025;-73
2024/01/03 04:42:04;;;;;;;49.45;11.07;;;11.80;99.90;;;11.39;100.00;99716.06;4186200;28;20021;-73
2024/01/03 04:44:04;;;;;;;39.22;7.10;;;11.90;99.90;;;11.51;100.00;99717.22;4196895;28;20484;-73
2024/01/03 04:46:05;;;;;;;36.80;7.93;;;11.90;99.90;;;11.52;100.00;99710.13;4201280;28;20027;-73
2024/01/03 04:48:07;;;;;;;40.97;6.38;;;12.00;99.90;;;11.65;100.00;99707.59;4185589;28;20025;-73
2024/01/03 04:50:08;;;;;;;41.08;7.80;;;12.00;99.90;;;11.60;100.00;99715.28;4185592;28;20519;-73
2024/01/03 04:52:11;;;;;;;46.63;9.07;;;12.00;99.90;;;11.61;100.00;99724.84;4190716;28;20563;-73
2024/01/03 04:54:12;;;;;;;39.05;8.38;;;12.10;99.90;;;11.60;100.00;99715.28;4193918;28;20029;-73
2024/01/03 04:56:13;;;;;;;32.88;5.88;;;12.10;99.90;;;11.54;100.00;99724.78;4201081;28;20036;-73
2024/01/03 04:58:14;;;;;;;30.30;6.55;;;12.00;99.90;;;11.42;100.00;99734.19;4199148;28;20084;-73
2024/01/03 05:00:15;;;;;;;39.90;6.25;;;12.00;99.90;;;11.28;100.00;99734.22;4197319;28;20025;-73
2024/01/03 05:02:16;;;;;;;37.85;8.15;;;11.80;99.90;;;11.22;100.00;99724.41;4185966;28;20056;-73
2024/01/03 05:04:16;;;;;;;39.65;6.05;;;11.80;99.90;;;11.15;100.00;99716.41;4200567;28;20476;-73
2024/01/03 05:06:17;;;;;;;33.50;7.15;;;11.70;99.90;;;11.09;100.00;99727.69;4201870;28;20396;-73
2024/01/03 05:08:18;;;;;;;37.45;6.13;;;11.60;99.90;;;11.04;100.00;99717.69;4202039;28;20407;-73
2024/01/03 05:10:19;;;;;;;25.50;5.50;;;11.50;99.90;;;10.93;100.00;99723.41;4201891;28;20056;-73
2024/01/03 05:12:20;;;;;;;25.77;5.05;;;11.50;99.90;;;10.87;100.00;99734.69;4200609;28;20032;-73
2024/01/03 05:14:21;;;;;;;21.27;4.68;;;11.40;99.90;;;10.75;100.00;99736.16;4187746;28;20021;-73
2024/01/03 05:16:22;;;;;;;21.75;4.97;;;11.30;99.90;;;10.73;100.00;99738.16;4185361;28;20021;-73
2024/01/03 05:18:23;;;;;;;12.75;3.33;;;11.30;99.90;;;10.48;100.00;99728.88;4183897;28;20024;-73
2024/01/03 05:20:23;;;;;;;15.25;3.22;;;11.10;99.90;;;10.26;100.00;99725.28;4185273;28;20499;-73
2024/01/03 05:22:24;;;;;;;12.02;2.70;;;10.90;99.90;;;10.18;100.00;99727.19;4186866;28;20020;-73
2024/01/03 05:24:27;;;;;;;10.23;1.98;;;10.70;99.90;;;10.06;100.00;99726.75;4200727;28;20024;-73
2024/01/03 05:26:28;;;;;;;13.40;2.47;;;10.60;99.90;;;9.95;100.00;99730.63;4185290;28;20044;-73
2024/01/03 05:28:29;;;;;;;9.35;2.47;;;10.40;99.90;;;9.89;100.00;99722.59;4185251;28;20085;-73
2024/01/03 05:30:30;;;;;;;16.85;3.08;;;10.40;99.90;;;9.97;100.00;99730.47;4195956;28;20039;-73
2024/01/03 05:32:31;;;;;;;18.73;4.57;;;10.40;99.90;;;10.06;100.00;99725.94;4185571;28;20032;-73
2024/01/03 05:34:32;;;;;;;25.52;5.43;;;10.40;99.90;;;10.01;100.00;99726.44;4185260;28;20029;-73
2024/01/03 05:36:33;;;;;;;30.35;4.88;;;10.40;99.90;;;10.06;100.00;99732.03;4184598;28;20025;-73
2024/01/03 05:38:37;;;;;;;25.20;4.95;;;10.50;99.90;;;10.03;100.00;99720.00;4185155;28;20056;-73
2024/01/03 05:40:38;;;;;;;;;;;10.50;99.90;;;10.09;100.00;99729.03;4184065;28;20040;-73
2024/01/03 05:42:38;;;;;;;26.67;5.10;;;10.50;99.90;;;10.16;100.00;99731.78;4189681;28;19915;-73
2024/01/03 05:44:39;;;;;;;34.78;6.97;;;10.60;99.90;;;10.42;100.00;99730.41;4200658;28;20024;-73
2024/01/03 05:46:42;;;;;;;43.88;6.50;;;10.70;99.90;;;10.46;100.00;99722.94;4200381;28;20028;-73
2024/01/03 05:48:42;;;;;;;51.83;7.32;;;10.80;99.90;;;10.51;100.00;99707.44;4200202;28;20024;-73
2024/01/03 05:50:43;;;;;;;46.10;7.78;;;10.90;99.90;;;10.57;100.00;99728.59;4217453;28;20062;-73
2024/01/03 05:52:44;;;;;;;38.85;8.30;;;11.00;99.90;;;10.68;100.00;99727.34;4200292;28;20032;-73
2024/01/03 05:54:45;;;;;;;39.70;8.18;;;11.10;99.90;;;10.77;100.00;99728.06;4187979;28;20017;-73
2024/01/03 05:56:46;;;;;;;52.85;8.02;;;11.10;99.90;;;10.89;100.00;99726.63;4184872;28;20029;-73
2024/01/03 05:58:47;;;;;;;60.22;9.30;;;11.20;99.90;;;10.90;100.00;99729.06;4183853;28;20033;-73
2024/01/03 06:00:47;;;;;;;50.00;9.25;;;11.30;99.90;;;10.94;100.00;99706.59;4216571;28;20024;-72
2024/01/03 06:02:48;;;;;;;65.55;11.57;;;11.40;99.90;;;11.00;100.00;99734.88;4195087;28;20031;-73
2024/01/03 06:04:49;;;;;;;47.42;8.52;;;11.40;99.90;;;11.04;100.00;99730.06;4188021;28;20066;-73
2024/01/03 06:06:50;;;;;;;46.85;8.70;;;11.40;99.90;;;11.03;100.00;99737.16;4201596;28;20507;-73
2024/01/03 06:08:51;;;;;;;47.30;9.30;;;11.40;99.90;;;11.03;100.00;99737.16;4201518;28;20480;-73
2024/01/03 06:10:52;;;;;;;35.13;7.30;;;11.50;99.90;;;10.98;100.00;99730.81;4200500;28;20413;-73
2024/01/03 06:12:53;;;;;;;47.13;8.90;;;11.40;99.90;;;10.90;100.00;99734.34;4214348;28;20036;-73
2024/01/03 06:14:53;;;;;;;46.97;6.93;;;11.40;99.90;;;10.82;100.00;99726.53;4183551;28;20018;-73
2024/01/03 06:16:54;;;;;;;34.28;7.20;;;11.30;99.90;;;10.66;100.00;99724.09;4185055;28;20029;-73
2024/01/03 06:18:55;;;;;;;34.03;7.18;;;11.20;99.90;;;10.60;100.00;99734.53;4184531;28;20021;-73
2024/01/03 06:20:56;;;;;;;33.92;7.43;;;11.20;99.90;;;10.53;100.00;99742.34;4183388;28;20025;-73
2024/01/03 06:22:57;;;;;;;34.28;6.57;;;11.10;99.90;;;10.43;100.00;99747.03;4186039;28;20033;-73
2024/01/03 06:24:58;;;;;;;33.50;6.40;;;11.00;99.90;;;10.50;100.00;99753.25;4183633;28;20471;-73
2024/01/03 06:26:59;;;;;;;36.03;6.28;;;11.00;99.90;;;10.45;100.00;99747.69;4200481;28;20033;-73
2024/01/03 06:28:59;;;;;;;29.83;5.90;;;11.00;99.90;;;10.47;100.00;99745.69;4183461;28;20040;-73
2024/01/03 06:31:02;;;;;;;39.63;7.65;;;11.00;99.90;;;10.61;100.00;99754.59;4195431;28;20032;-73
2024/01/03 06:33:03;;;;;;;39.80;8.05;;;11.00;99.90;;;10.67;100.00;99752.06;4191619;28;20115;-73
2024/01/03 06:35:05;;;;;;;37.30;7.85;;;11.10;99.90;;;10.67;100.00;99751.25;4188940;28;20055;-73
2024/01/03 06:37:06;;;;;;;39.22;6.82;;;11.10;99.90;;;10.66;100.00;99752.28;4184605;28;20116;-73
2024/01/03 06:39:07;;;;;;;40.28;7.13;;;11.20;99.90;;;10.70;100.00;99746.44;4184717;28;20033;-73
2024/01/03 06:41:09;;;;;;;40.83;7.28;;;11.20;99.90;;;10.71;100.00;99742.81;4183415;28;20025;-73
2024/01/03 06:43:10;;;;;;;42.50;8.57;;;11.20;99.90;;;10.67;100.00;99746.81;4209890;28;20016;-73
2024/01/03 06:45:11;;;;;;;47.70;8.93;;;11.20;99.90;;;10.74;100.00;99736.34;4216065;28;20105;-73
2024/01/03 06:47:11;;;;;;;42.95;9.20;;;11.20;99.90;;;10.87;100.00;99745.25;4183458;28;20082;-73
2024/01/03 06:49:12;;;;;;;39.00;8.35;;;11.30;99.90;;;10.95;100.00;99737.28;4186036;28;20056;-73
2024/01/03 06:51:20;;;;;;;44.53;8.43;;;11.40;99.90;;;11.01;100.00;99735.72;4194120;28;20012;-73
2024/01/03 06:53:21;;;;;;;49.88;7.80;;;11.40;99.90;;;11.02;100.00;99751.34;4197678;28;20036;-73
2024/01/03 06:55:22;;;;;;;50.63;8.65;;;11.40;99.90;;;11.05;100.00;99740.44;4187562;28;20021;-73
2024/01/03 06:57:23;;;;;;;48.25;9.95;;;11.50;99.90;;;11.08;100.00;99742.69;4202630;28;20074;-73
2024/01/03 06:59:23;;;;;;;53.38;7.78;;;11.50;99.90;;;11.14;100.00;99740.34;4187448;28;20025;-73
2024/01/03 07:01:24;;;;;;;39.90;9.23;;;11.60;99.90;;;11.13;100.00;99736.88;4187365;28;20090;-73
2024/01/03 07:03:25;;;;;;;54.95;8.93;;;11.60;99.90;;;11.16;100.00;99736.53;4192146;28;20599;-73
2024/01/03 07:05:26;;;;;;;55.13;8.85;;;11.60;99.90;;;11.20;100.00;99747.53;4195174;28;20064;-73
2024/01/03 07:07:27;;;;;;;50.15;9.05;;;11.60;99.90;;;11.21;100.00;99733.31;4204178;28;20025;-73
2024/01/03 07:09:28;;;;;;;43.85;9.43;;;11.60;99.90;;;11.20;100.00;99739.63;4203748;28;20032;-73
2024/01/03 07:11:29;;;;;;;45.70;8.05;;;11.60;99.90;;;11.21;100.00;99731.50;4203924;28;20032;-73
2024/01/03 07:13:31;;;;;;;50.80;8.35;;;11.60;99.90;;;11.27;100.00;99765.09;4194955;28;20111;-73
2024/01/03 07:15:31;;;;;;;46.60;7.95;;;11.70;99.90;;;11.26;100.00;99770.56;4187199;28;20079;-73
2024/01/03 07:17:32;;;;;;;42.60;8.80;;;11.70;99.90;;;11.23;100.00;99789.41;4185584;28;20500;-73
2024/01/03 07:19:33;;;;;;;35.83;6.85;;;11.70;99.90;;;11.05;100.00;99781.84;4187144;28;20082;-73
2024/01/03 07:21:34;;;;;;;22.33;4.82;;;11.60;99.90;;;10.95;100.00;99766.28;4202443;28;20041;-73
2024/01/03 07:23:35;;;;;;;18.77;4.40;;;11.50;99.90;;;10.79;100.00;99771.72;4187273;28;20025;-73
2024/01/03 07:25:36;;;;;;;22.92;3.63;;;11.40;99.90;;;10.52;100.00;99762.59;4186874;28;20436;-73
2024/01/03 07:27:37;;;;;;;21.83;3.60;;;11.20;99.90;;;10.43;100.00;99765.50;4185883;28;20428;-73
2024/01/03 07:29:37;;;;;;;22.70;3.67;;;11.10;99.90;;;10.33;100.00;99760.50;4190401;28;20029;-73
2024/01/03 07:31:38;;;;;;;19.17;4.07;;;10.90;99.90;;;10.21;100.00;99754.00;4192359;28;20033;-73
2024/01/03 07:33:40;;;;;;;30.42;5.80;;;10.80;99.90;;;10.33;100.00;99751.75;4213028;28;20042;-73
2024/01/03 07:35:41;;;;;;;52.40;7.57;;;10.80;99.90;;;10.29;100.00;99761.00;4198886;28;20028;-73
2024/01/03 07:37:42;;;;;;;36.92;7.13;;;10.70;99.90;;;10.34;100.00;99764.75;4193322;28;20103;-73
2024/01/03 07:39:43;;;;;;;43.97;7.68;;;10.70;99.90;;;10.27;100.00;99757.75;4203422;28;20020;-73
2024/01/03 07:41:43;;;;;;;47.65;8.93;;;10.70;99.90;;;10.16;100.00;99747.59;4202249;28;20028;-73
2024/01/03 07:43:44;;;;;;;45.63;8.75;;;10.60;99.90;;;10.28;100.00;99759.38;4199988;28;20036;-73
2024/01/03 07:45:45;;;;;;;50.50;8.25;;;10.60;99.90;;;10.25;100.00;99765.00;4186943;28;20501;-73
2024/01/03 07:47:46;;;;;;;52.65;10.82;;;10.70;99.90;;;10.41;100.00;99755.16;4186452;28;20021;-73
2024/01/03 07:49:47;;;;;;;57.85;9.35;;;10.70;99.90;;;10.59;100.00;99754.81;4218997;28;20422;-73
2024/01/03 07:51:49;;;;;;;40.50;7.60;;;10.90;99.90;;;10.66;100.00;99753.09;4187321;28;20021;-73
2024/01/03 07:53:50;;;;;;;44.33;10.50;;;11.00;99.90;;;10.78;100.00;99751.63;4196034;28;20084;-73
2024/01/03 07:55:52;;;;;;;59.70;12.57;;;11.00;99.90;;;10.80;100.00;99749.63;4186393;28;20032;-73
2024/01/03 07:57:53;;;;;;;51.97;9.45;;;11.10;99.90;;;10.85;100.00;99751.72;4197897;28;20020;-73
2024/01/03 07:59:54;;;;;;;50.35;8.75;;;11.10;99.90;;;10.83;100.00;99748.44;4186023;28;20029;-73
2024/01/03 08:01:55;;;;;;;45.15;8.50;;;11.20;99.90;;;10.86;100.00;99746.28;4186456;28;20032;-73
2024/01/03 08:03:56;;;;;;;53.90;7.85;;;11.20;99.90;;;10.93;100.00;99755.09;4196991;28;20047;-73
2024/01/03 08:05:57;;;;;;;41.38;7.28;;;11.30;99.90;;;11.00;100.00;99763.91;4202936;28;20511;-73
2024/01/03 08:07:57;;;;;;;46.90;9.40;;;11.30;99.90;;;11.04;100.00;99765.19;4202703;28;20077;-73
2024/01/03 08:09:58;;;;;;;46.38;11.30;;;11.30;99.90;;;10.99;100.00;99772.81;4202825;28;20404;-73
2024/01/03 08:11:59;;;;;;;38.28;8.15;;;11.30;99.90;;;10.91;100.00;99762.38;4202722;28;20475;-73
2024/01/03 08:14:01;;;;;;;40.63;6.30;;;11.30;99.90;;;10.83;100.00;99757.19;4190686;28;20033;-72
2024/01/03 08:16:02;;;;;;;41.88;7.07;;;11.30;99.90;;;10.84;100.00;99758.81;4168235;28;20063;-73
2024/01/03 08:18:02;;;;;;;36.10;6.45;;;11.30;99.90;;;10.87;100.00;99755.81;4185960;28;20029;-72
2024/01/03 08:20:04;;;;;;;36.83;5.57;;;11.30;99.90;;;10.81;100.00;99747.81;4186259;28;20116;-73